sensor_id;sensor_type;location;lat;lon;timestamp;P1;durP1;ratioP1;P2;durP2;ratioP2
23720;SDS011;42950;52.134;5.578;2022-07-10T00:01:10;5.53;;;1.17;;
23720;SDS011;42950;52.134;5.578;2022-07-10T00:03:36;3.13;;;1.08;;
23720;SDS011;42950;52.134;5.578;2022-07-10T00:06:02;6.22;;;1.45;;
23720;SDS011;42950;52.134;5.578;2022-07-10T00:08:27;9.38;;;1.30;;
23720;SDS011;42950;52.134;5.578;2022-07-10T00:10:53;5.53;;;1.13;;
23720;SDS011;42950;52.134;5.578;2022-07-10T00:13:19;6.75;;;1.23;;
23720;SDS011;42950;52.134;5.578;2022-07-10T00:15:44;4.22;;;1.00;;
23720;SDS011;42950;52.134;5.578;2022-07-10T00:18:10;4.75;;;1.10;;
23720;SDS011;42950;52.134;5.578;2022-07-10T00:20:35;5.78;;;1.00;;
23720;SDS011;42950;52.134;5.578;2022-07-10T00:23:02;7.15;;;1.40;;
23720;SDS011;42950;52.134;5.578;2022-07-10T00:25:28;6.03;;;1.67;;
23720;SDS011;42950;52.134;5.578;2022-07-10T00:27:53;5.60;;;1.02;;
23720;SDS011;42950;52.134;5.578;2022-07-10T00:30:20;3.38;;;1.05;;
23720;SDS011;42950;52.134;5.578;2022-07-10T00:32:46;5.68;;;1.15;;
23720;SDS011;42950;52.134;5.578;2022-07-10T00:35:11;6.22;;;1.10;;
23720;SDS011;42950;52.134;5.578;2022-07-10T00:37:37;6.85;;;1.40;;
23720;SDS011;42950;52.134;5.578;2022-07-10T00:40:03;3.22;;;0.98;;
23720;SDS011;42950;52.134;5.578;2022-07-10T00:42:30;7.45;;;1.60;;
23720;SDS011;42950;52.134;5.578;2022-07-10T00:44:56;7.05;;;1.20;;
23720;SDS011;42950;52.134;5.578;2022-07-10T00:47:22;5.57;;;1.60;;
23720;SDS011;42950;52.134;5.578;2022-07-10T00:49:48;6.28;;;1.40;;
23720;SDS011;42950;52.134;5.578;2022-07-10T00:52:18;4.68;;;1.23;;
23720;SDS011;42950;52.134;5.578;2022-07-10T00:54:45;6.35;;;1.20;;
23720;SDS011;42950;52.134;5.578;2022-07-10T00:57:12;5.07;;;1.30;;
23720;SDS011;42950;52.134;5.578;2022-07-10T00:59:42;4.35;;;1.27;;
23720;SDS011;42950;52.134;5.578;2022-07-10T01:02:09;5.93;;;1.33;;
23720;SDS011;42950;52.134;5.578;2022-07-10T01:04:35;7.55;;;1.40;;
23720;SDS011;42950;52.134;5.578;2022-07-10T01:07:01;7.32;;;1.38;;
23720;SDS011;42950;52.134;5.578;2022-07-10T01:09:27;7.78;;;1.60;;
23720;SDS011;42950;52.134;5.578;2022-07-10T01:11:56;5.85;;;1.30;;
23720;SDS011;42950;52.134;5.578;2022-07-10T01:14:26;3.72;;;1.38;;
23720;SDS011;42950;52.134;5.578;2022-07-10T01:16:54;3.75;;;1.17;;
23720;SDS011;42950;52.134;5.578;2022-07-10T01:19:19;6.90;;;1.33;;
23720;SDS011;42950;52.134;5.578;2022-07-10T01:21:45;5.90;;;1.63;;
23720;SDS011;42950;52.134;5.578;2022-07-10T01:24:11;4.72;;;1.30;;
23720;SDS011;42950;52.134;5.578;2022-07-10T01:26:37;9.40;;;1.33;;
23720;SDS011;42950;52.134;5.578;2022-07-10T01:29:08;8.32;;;1.33;;
23720;SDS011;42950;52.134;5.578;2022-07-10T01:31:36;8.93;;;1.48;;
23720;SDS011;42950;52.134;5.578;2022-07-10T01:34:04;2.80;;;1.10;;
23720;SDS011;42950;52.134;5.578;2022-07-10T01:36:31;7.70;;;1.50;;
23720;SDS011;42950;52.134;5.578;2022-07-10T01:38:58;5.57;;;1.17;;
23720;SDS011;42950;52.134;5.578;2022-07-10T01:41:24;3.70;;;1.27;;
23720;SDS011;42950;52.134;5.578;2022-07-10T01:43:51;5.53;;;1.25;;
23720;SDS011;42950;52.134;5.578;2022-07-10T01:46:17;5.75;;;1.25;;
23720;SDS011;42950;52.134;5.578;2022-07-10T01:48:43;5.55;;;1.13;;
23720;SDS011;42950;52.134;5.578;2022-07-10T01:51:09;6.10;;;1.30;;
23720;SDS011;42950;52.134;5.578;2022-07-10T01:53:36;3.95;;;1.20;;
23720;SDS011;42950;52.134;5.578;2022-07-10T01:56:06;6.82;;;1.40;;
23720;SDS011;42950;52.134;5.578;2022-07-10T01:58:34;4.07;;;1.10;;
23720;SDS011;42950;52.134;5.578;2022-07-10T02:01:00;9.25;;;1.27;;
23720;SDS011;42950;52.134;5.578;2022-07-10T02:03:26;9.05;;;1.67;;
23720;SDS011;42950;52.134;5.578;2022-07-10T02:06:11;6.78;;;1.33;;
23720;SDS011;42950;52.134;5.578;2022-07-10T02:08:36;6.60;;;1.40;;
23720;SDS011;42950;52.134;5.578;2022-07-10T02:11:02;7.38;;;1.20;;
23720;SDS011;42950;52.134;5.578;2022-07-10T02:13:27;3.63;;;1.05;;
23720;SDS011;42950;52.134;5.578;2022-07-10T02:15:56;9.30;;;1.85;;
23720;SDS011;42950;52.134;5.578;2022-07-10T02:18:22;6.03;;;1.23;;
23720;SDS011;42950;52.134;5.578;2022-07-10T02:20:50;8.35;;;1.52;;
23720;SDS011;42950;52.134;5.578;2022-07-10T02:23:16;5.00;;;1.40;;
23720;SDS011;42950;52.134;5.578;2022-07-10T02:25:43;6.18;;;1.45;;
23720;SDS011;42950;52.134;5.578;2022-07-10T02:28:09;4.40;;;1.27;;
23720;SDS011;42950;52.134;5.578;2022-07-10T02:30:35;6.20;;;1.20;;
23720;SDS011;42950;52.134;5.578;2022-07-10T02:33:01;6.70;;;1.80;;
23720;SDS011;42950;52.134;5.578;2022-07-10T02:35:27;7.15;;;1.50;;
23720;SDS011;42950;52.134;5.578;2022-07-10T02:37:53;6.57;;;1.70;;
23720;SDS011;42950;52.134;5.578;2022-07-10T02:40:19;6.70;;;1.50;;
23720;SDS011;42950;52.134;5.578;2022-07-10T02:42:44;4.00;;;1.38;;
23720;SDS011;42950;52.134;5.578;2022-07-10T02:45:10;5.30;;;1.73;;
23720;SDS011;42950;52.134;5.578;2022-07-10T02:47:38;6.00;;;1.88;;
23720;SDS011;42950;52.134;5.578;2022-07-10T02:50:03;6.30;;;1.40;;
23720;SDS011;42950;52.134;5.578;2022-07-10T02:52:29;5.97;;;1.70;;
23720;SDS011;42950;52.134;5.578;2022-07-10T02:54:55;9.10;;;2.45;;
23720;SDS011;42950;52.134;5.578;2022-07-10T02:57:22;7.28;;;1.40;;
23720;SDS011;42950;52.134;5.578;2022-07-10T02:59:47;5.75;;;1.10;;
23720;SDS011;42950;52.134;5.578;2022-07-10T03:02:13;6.20;;;1.27;;
23720;SDS011;42950;52.134;5.578;2022-07-10T03:04:40;5.18;;;1.63;;
23720;SDS011;42950;52.134;5.578;2022-07-10T03:07:05;5.45;;;1.35;;
23720;SDS011;42950;52.134;5.578;2022-07-10T03:09:31;9.52;;;1.58;;
23720;SDS011;42950;52.134;5.578;2022-07-10T03:11:57;7.25;;;1.48;;
23720;SDS011;42950;52.134;5.578;2022-07-10T03:14:22;8.85;;;1.73;;
23720;SDS011;42950;52.134;5.578;2022-07-10T03:16:48;4.22;;;1.38;;
23720;SDS011;42950;52.134;5.578;2022-07-10T03:19:14;7.40;;;1.48;;
23720;SDS011;42950;52.134;5.578;2022-07-10T03:21:39;6.43;;;1.73;;
23720;SDS011;42950;52.134;5.578;2022-07-10T03:24:05;6.05;;;1.45;;
23720;SDS011;42950;52.134;5.578;2022-07-10T03:26:31;4.97;;;1.60;;
23720;SDS011;42950;52.134;5.578;2022-07-10T03:28:56;5.13;;;1.42;;
23720;SDS011;42950;52.134;5.578;2022-07-10T03:31:22;13.57;;;1.85;;
23720;SDS011;42950;52.134;5.578;2022-07-10T03:33:48;7.03;;;1.58;;
23720;SDS011;42950;52.134;5.578;2022-07-10T03:36:14;7.05;;;1.30;;
23720;SDS011;42950;52.134;5.578;2022-07-10T03:38:39;10.93;;;1.63;;
23720;SDS011;42950;52.134;5.578;2022-07-10T03:41:05;6.50;;;1.55;;
23720;SDS011;42950;52.134;5.578;2022-07-10T03:43:32;8.23;;;1.52;;
23720;SDS011;42950;52.134;5.578;2022-07-10T03:45:57;7.30;;;1.50;;
23720;SDS011;42950;52.134;5.578;2022-07-10T03:48:24;7.60;;;1.48;;
23720;SDS011;42950;52.134;5.578;2022-07-10T03:50:57;4.63;;;1.55;;
23720;SDS011;42950;52.134;5.578;2022-07-10T03:53:23;8.95;;;1.60;;
23720;SDS011;42950;52.134;5.578;2022-07-10T03:55:49;10.35;;;1.73;;
23720;SDS011;42950;52.134;5.578;2022-07-10T03:58:15;3.05;;;1.40;;
23720;SDS011;42950;52.134;5.578;2022-07-10T04:00:41;3.05;;;1.13;;
23720;SDS011;42950;52.134;5.578;2022-07-10T04:03:07;8.05;;;2.03;;
23720;SDS011;42950;52.134;5.578;2022-07-10T04:05:33;5.03;;;1.20;;
23720;SDS011;42950;52.134;5.578;2022-07-10T04:08:00;5.38;;;1.42;;
23720;SDS011;42950;52.134;5.578;2022-07-10T04:10:28;7.80;;;1.35;;
23720;SDS011;42950;52.134;5.578;2022-07-10T04:12:55;6.72;;;1.40;;
23720;SDS011;42950;52.134;5.578;2022-07-10T04:15:20;7.13;;;1.55;;
23720;SDS011;42950;52.134;5.578;2022-07-10T04:17:47;9.63;;;1.45;;
23720;SDS011;42950;52.134;5.578;2022-07-10T04:20:14;4.88;;;1.05;;
23720;SDS011;42950;52.134;5.578;2022-07-10T04:22:41;7.60;;;1.50;;
23720;SDS011;42950;52.134;5.578;2022-07-10T04:25:07;10.23;;;1.40;;
23720;SDS011;42950;52.134;5.578;2022-07-10T04:27:33;4.40;;;1.10;;
23720;SDS011;42950;52.134;5.578;2022-07-10T04:29:58;7.68;;;1.38;;
23720;SDS011;42950;52.134;5.578;2022-07-10T04:32:24;6.63;;;1.73;;
23720;SDS011;42950;52.134;5.578;2022-07-10T04:34:51;5.35;;;1.25;;
23720;SDS011;42950;52.134;5.578;2022-07-10T04:37:17;6.40;;;1.17;;
23720;SDS011;42950;52.134;5.578;2022-07-10T04:39:42;7.18;;;1.60;;
23720;SDS011;42950;52.134;5.578;2022-07-10T04:42:08;5.50;;;1.17;;
23720;SDS011;42950;52.134;5.578;2022-07-10T04:44:35;4.82;;;1.20;;
23720;SDS011;42950;52.134;5.578;2022-07-10T04:47:04;10.38;;;1.67;;
23720;SDS011;42950;52.134;5.578;2022-07-10T04:49:30;6.82;;;1.52;;
23720;SDS011;42950;52.134;5.578;2022-07-10T04:51:58;6.00;;;1.23;;
23720;SDS011;42950;52.134;5.578;2022-07-10T04:54:24;7.10;;;1.10;;
23720;SDS011;42950;52.134;5.578;2022-07-10T04:56:51;5.13;;;1.20;;
23720;SDS011;42950;52.134;5.578;2022-07-10T04:59:17;8.60;;;1.50;;
23720;SDS011;42950;52.134;5.578;2022-07-10T05:01:42;9.18;;;1.60;;
23720;SDS011;42950;52.134;5.578;2022-07-10T05:04:08;5.63;;;1.38;;
23720;SDS011;42950;52.134;5.578;2022-07-10T05:06:34;8.70;;;1.55;;
23720;SDS011;42950;52.134;5.578;2022-07-10T05:08:59;9.30;;;1.27;;
23720;SDS011;42950;52.134;5.578;2022-07-10T05:11:25;12.18;;;1.95;;
23720;SDS011;42950;52.134;5.578;2022-07-10T05:13:52;6.97;;;1.50;;
23720;SDS011;42950;52.134;5.578;2022-07-10T05:16:18;13.50;;;1.67;;
23720;SDS011;42950;52.134;5.578;2022-07-10T05:18:44;10.35;;;1.60;;
23720;SDS011;42950;52.134;5.578;2022-07-10T05:21:10;7.10;;;1.63;;
23720;SDS011;42950;52.134;5.578;2022-07-10T05:23:37;9.93;;;1.45;;
23720;SDS011;42950;52.134;5.578;2022-07-10T05:26:04;6.90;;;1.50;;
23720;SDS011;42950;52.134;5.578;2022-07-10T05:28:32;9.98;;;1.73;;
23720;SDS011;42950;52.134;5.578;2022-07-10T05:30:58;7.35;;;1.73;;
23720;SDS011;42950;52.134;5.578;2022-07-10T05:33:24;10.43;;;1.70;;
23720;SDS011;42950;52.134;5.578;2022-07-10T05:35:51;8.98;;;1.80;;
23720;SDS011;42950;52.134;5.578;2022-07-10T05:38:17;8.85;;;1.92;;
23720;SDS011;42950;52.134;5.578;2022-07-10T05:40:44;8.75;;;2.10;;
23720;SDS011;42950;52.134;5.578;2022-07-10T05:43:09;8.57;;;1.88;;
23720;SDS011;42950;52.134;5.578;2022-07-10T05:45:37;10.70;;;1.67;;
23720;SDS011;42950;52.134;5.578;2022-07-10T05:48:03;6.68;;;1.55;;
23720;SDS011;42950;52.134;5.578;2022-07-10T05:50:28;13.80;;;2.03;;
23720;SDS011;42950;52.134;5.578;2022-07-10T05:52:55;13.73;;;2.05;;
23720;SDS011;42950;52.134;5.578;2022-07-10T05:55:21;8.13;;;1.80;;
23720;SDS011;42950;52.134;5.578;2022-07-10T05:57:47;9.38;;;1.95;;
23720;SDS011;42950;52.134;5.578;2022-07-10T06:00:12;8.55;;;1.70;;
23720;SDS011;42950;52.134;5.578;2022-07-10T06:02:39;9.95;;;1.83;;
23720;SDS011;42950;52.134;5.578;2022-07-10T06:05:05;10.07;;;1.95;;
23720;SDS011;42950;52.134;5.578;2022-07-10T06:07:32;8.70;;;2.08;;
23720;SDS011;42950;52.134;5.578;2022-07-10T06:09:58;7.78;;;1.90;;
23720;SDS011;42950;52.134;5.578;2022-07-10T06:12:23;6.25;;;1.80;;
23720;SDS011;42950;52.134;5.578;2022-07-10T06:14:50;9.40;;;1.52;;
23720;SDS011;42950;52.134;5.578;2022-07-10T06:17:15;7.95;;;1.50;;
23720;SDS011;42950;52.134;5.578;2022-07-10T06:19:41;8.13;;;1.83;;
23720;SDS011;42950;52.134;5.578;2022-07-10T06:22:07;8.07;;;1.55;;
23720;SDS011;42950;52.134;5.578;2022-07-10T06:24:52;8.55;;;1.88;;
23720;SDS011;42950;52.134;5.578;2022-07-10T06:27:17;6.78;;;1.52;;
23720;SDS011;42950;52.134;5.578;2022-07-10T06:29:43;8.50;;;2.08;;
23720;SDS011;42950;52.134;5.578;2022-07-10T06:32:08;9.63;;;2.10;;
23720;SDS011;42950;52.134;5.578;2022-07-10T06:34:34;10.40;;;2.10;;
23720;SDS011;42950;52.134;5.578;2022-07-10T06:37:00;8.30;;;1.88;;
23720;SDS011;42950;52.134;5.578;2022-07-10T06:39:27;7.80;;;1.83;;
23720;SDS011;42950;52.134;5.578;2022-07-10T06:41:58;6.55;;;1.83;;
23720;SDS011;42950;52.134;5.578;2022-07-10T06:44:25;8.32;;;1.70;;
23720;SDS011;42950;52.134;5.578;2022-07-10T06:46:51;8.10;;;1.70;;
23720;SDS011;42950;52.134;5.578;2022-07-10T06:49:35;10.90;;;1.67;;
23720;SDS011;42950;52.134;5.578;2022-07-10T06:52:01;6.63;;;1.55;;
23720;SDS011;42950;52.134;5.578;2022-07-10T06:54:26;7.05;;;1.50;;
23720;SDS011;42950;52.134;5.578;2022-07-10T06:56:52;9.20;;;1.73;;
23720;SDS011;42950;52.134;5.578;2022-07-10T06:59:18;10.38;;;2.00;;
23720;SDS011;42950;52.134;5.578;2022-07-10T07:01:43;6.00;;;1.35;;
23720;SDS011;42950;52.134;5.578;2022-07-10T07:04:09;7.07;;;1.52;;
23720;SDS011;42950;52.134;5.578;2022-07-10T07:06:34;7.55;;;1.90;;
23720;SDS011;42950;52.134;5.578;2022-07-10T07:09:00;7.93;;;1.70;;
23720;SDS011;42950;52.134;5.578;2022-07-10T07:11:25;9.30;;;1.75;;
23720;SDS011;42950;52.134;5.578;2022-07-10T07:13:51;10.90;;;1.70;;
23720;SDS011;42950;52.134;5.578;2022-07-10T07:16:17;7.38;;;1.70;;
23720;SDS011;42950;52.134;5.578;2022-07-10T07:18:45;8.63;;;1.85;;
23720;SDS011;42950;52.134;5.578;2022-07-10T07:21:16;7.38;;;1.60;;
23720;SDS011;42950;52.134;5.578;2022-07-10T07:24:01;9.65;;;1.77;;
23720;SDS011;42950;52.134;5.578;2022-07-10T07:26:27;4.97;;;1.40;;
23720;SDS011;42950;52.134;5.578;2022-07-10T07:28:53;5.68;;;1.25;;
23720;SDS011;42950;52.134;5.578;2022-07-10T07:31:18;9.65;;;1.95;;
23720;SDS011;42950;52.134;5.578;2022-07-10T07:33:44;8.10;;;1.75;;
23720;SDS011;42950;52.134;5.578;2022-07-10T07:36:10;5.97;;;1.58;;
23720;SDS011;42950;52.134;5.578;2022-07-10T07:38:36;7.35;;;1.50;;
23720;SDS011;42950;52.134;5.578;2022-07-10T07:41:01;7.03;;;1.55;;
23720;SDS011;42950;52.134;5.578;2022-07-10T07:43:27;4.60;;;1.58;;
23720;SDS011;42950;52.134;5.578;2022-07-10T07:45:52;6.20;;;1.20;;
23720;SDS011;42950;52.134;5.578;2022-07-10T07:48:18;8.45;;;2.17;;
23720;SDS011;42950;52.134;5.578;2022-07-10T07:50:43;6.80;;;1.45;;
23720;SDS011;42950;52.134;5.578;2022-07-10T07:53:09;6.80;;;1.30;;
23720;SDS011;42950;52.134;5.578;2022-07-10T07:55:35;4.88;;;1.50;;
23720;SDS011;42950;52.134;5.578;2022-07-10T07:58:00;5.80;;;1.35;;
23720;SDS011;42950;52.134;5.578;2022-07-10T08:00:28;5.85;;;1.48;;
23720;SDS011;42950;52.134;5.578;2022-07-10T08:02:54;5.05;;;1.30;;
23720;SDS011;42950;52.134;5.578;2022-07-10T08:05:22;5.20;;;1.15;;
23720;SDS011;42950;52.134;5.578;2022-07-10T08:07:52;5.82;;;1.20;;
23720;SDS011;42950;52.134;5.578;2022-07-10T08:10:20;5.70;;;1.70;;
23720;SDS011;42950;52.134;5.578;2022-07-10T08:12:46;6.30;;;1.50;;
23720;SDS011;42950;52.134;5.578;2022-07-10T08:15:13;3.00;;;1.00;;
23720;SDS011;42950;52.134;5.578;2022-07-10T08:17:40;6.25;;;1.40;;
23720;SDS011;42950;52.134;5.578;2022-07-10T08:20:07;5.50;;;1.30;;
23720;SDS011;42950;52.134;5.578;2022-07-10T08:22:35;7.22;;;1.17;;
23720;SDS011;42950;52.134;5.578;2022-07-10T08:25:01;5.15;;;1.20;;
23720;SDS011;42950;52.134;5.578;2022-07-10T08:27:27;3.85;;;1.25;;
23720;SDS011;42950;52.134;5.578;2022-07-10T08:29:53;4.32;;;1.40;;
23720;SDS011;42950;52.134;5.578;2022-07-10T08:32:18;5.35;;;1.20;;
23720;SDS011;42950;52.134;5.578;2022-07-10T08:34:44;7.57;;;1.60;;
23720;SDS011;42950;52.134;5.578;2022-07-10T08:37:10;8.02;;;1.27;;
23720;SDS011;42950;52.134;5.578;2022-07-10T08:39:35;6.38;;;1.50;;
23720;SDS011;42950;52.134;5.578;2022-07-10T08:42:01;6.32;;;1.20;;
23720;SDS011;42950;52.134;5.578;2022-07-10T08:44:29;2.97;;;1.10;;
23720;SDS011;42950;52.134;5.578;2022-07-10T08:46:54;4.28;;;1.30;;
23720;SDS011;42950;52.134;5.578;2022-07-10T08:49:24;4.50;;;1.20;;
23720;SDS011;42950;52.134;5.578;2022-07-10T08:51:56;4.95;;;1.30;;
23720;SDS011;42950;52.134;5.578;2022-07-10T08:54:25;5.25;;;1.50;;
23720;SDS011;42950;52.134;5.578;2022-07-10T08:56:53;3.92;;;1.27;;
23720;SDS011;42950;52.134;5.578;2022-07-10T08:59:20;3.78;;;1.40;;
23720;SDS011;42950;52.134;5.578;2022-07-10T09:01:47;4.10;;;1.10;;
23720;SDS011;42950;52.134;5.578;2022-07-10T09:04:17;6.05;;;1.27;;
23720;SDS011;42950;52.134;5.578;2022-07-10T09:06:43;6.35;;;1.20;;
23720;SDS011;42950;52.134;5.578;2022-07-10T09:09:10;6.55;;;1.23;;
23720;SDS011;42950;52.134;5.578;2022-07-10T09:11:36;2.65;;;1.08;;
23720;SDS011;42950;52.134;5.578;2022-07-10T09:14:05;3.75;;;1.33;;
23720;SDS011;42950;52.134;5.578;2022-07-10T09:16:34;5.20;;;1.40;;
23720;SDS011;42950;52.134;5.578;2022-07-10T09:21:42;3.42;;;1.08;;
23720;SDS011;42950;52.134;5.578;2022-07-10T09:24:08;3.75;;;1.10;;
23720;SDS011;42950;52.134;5.578;2022-07-10T09:26:35;4.30;;;1.15;;
23720;SDS011;42950;52.134;5.578;2022-07-10T09:29:08;4.50;;;1.45;;
23720;SDS011;42950;52.134;5.578;2022-07-10T09:31:51;4.20;;;1.45;;
23720;SDS011;42950;52.134;5.578;2022-07-10T09:34:17;5.82;;;0.95;;
23720;SDS011;42950;52.134;5.578;2022-07-10T09:36:43;1.77;;;0.88;;
23720;SDS011;42950;52.134;5.578;2022-07-10T09:39:09;3.78;;;1.15;;
23720;SDS011;42950;52.134;5.578;2022-07-10T09:41:35;3.47;;;1.13;;
23720;SDS011;42950;52.134;5.578;2022-07-10T09:44:04;6.78;;;1.25;;
23720;SDS011;42950;52.134;5.578;2022-07-10T09:46:34;3.38;;;1.20;;
23720;SDS011;42950;52.134;5.578;2022-07-10T09:51:32;3.30;;;1.10;;
23720;SDS011;42950;52.134;5.578;2022-07-10T09:54:03;2.53;;;0.85;;
23720;SDS011;42950;52.134;5.578;2022-07-10T09:56:41;6.07;;;1.25;;
23720;SDS011;42950;52.134;5.578;2022-07-10T09:59:16;4.93;;;1.10;;
23720;SDS011;42950;52.134;5.578;2022-07-10T10:01:47;2.15;;;0.90;;
23720;SDS011;42950;52.134;5.578;2022-07-10T10:04:14;5.20;;;0.80;;
23720;SDS011;42950;52.134;5.578;2022-07-10T10:06:42;3.10;;;0.88;;
23720;SDS011;42950;52.134;5.578;2022-07-10T10:11:43;3.50;;;1.05;;
23720;SDS011;42950;52.134;5.578;2022-07-10T10:14:10;2.13;;;0.80;;
23720;SDS011;42950;52.134;5.578;2022-07-10T10:16:36;2.72;;;1.13;;
23720;SDS011;42950;52.134;5.578;2022-07-10T10:19:04;3.70;;;0.85;;
23720;SDS011;42950;52.134;5.578;2022-07-10T10:21:53;3.47;;;1.15;;
23720;SDS011;42950;52.134;5.578;2022-07-10T10:24:19;3.80;;;1.23;;
23720;SDS011;42950;52.134;5.578;2022-07-10T10:26:46;3.28;;;0.90;;
23720;SDS011;42950;52.134;5.578;2022-07-10T10:29:11;3.42;;;1.00;;
23720;SDS011;42950;52.134;5.578;2022-07-10T10:31:38;3.28;;;1.00;;
23720;SDS011;42950;52.134;5.578;2022-07-10T10:34:05;2.15;;;1.05;;
23720;SDS011;42950;52.134;5.578;2022-07-10T10:39:16;4.68;;;1.25;;
23720;SDS011;42950;52.134;5.578;2022-07-10T10:41:53;2.55;;;1.00;;
23720;SDS011;42950;52.134;5.578;2022-07-10T10:44:19;3.97;;;1.05;;
23720;SDS011;42950;52.134;5.578;2022-07-10T10:46:56;3.50;;;1.10;;
23720;SDS011;42950;52.134;5.578;2022-07-10T10:49:47;1.83;;;1.00;;
23720;SDS011;42950;52.134;5.578;2022-07-10T10:52:21;5.63;;;1.02;;
23720;SDS011;42950;52.134;5.578;2022-07-10T10:59:57;5.05;;;1.10;;
23720;SDS011;42950;52.134;5.578;2022-07-10T11:02:31;1.73;;;0.80;;
23720;SDS011;42950;52.134;5.578;2022-07-10T11:08:02;2.85;;;0.98;;
23720;SDS011;42950;52.134;5.578;2022-07-10T11:10:36;3.10;;;0.90;;
23720;SDS011;42950;52.134;5.578;2022-07-10T11:13:11;5.78;;;1.20;;
23720;SDS011;42950;52.134;5.578;2022-07-10T11:15:41;2.30;;;0.98;;
23720;SDS011;42950;52.134;5.578;2022-07-10T11:18:19;4.25;;;0.90;;
23720;SDS011;42950;52.134;5.578;2022-07-10T11:20:50;2.53;;;0.90;;
23720;SDS011;42950;52.134;5.578;2022-07-10T11:26:03;3.58;;;0.88;;
23720;SDS011;42950;52.134;5.578;2022-07-10T11:31:22;2.47;;;1.10;;
23720;SDS011;42950;52.134;5.578;2022-07-10T11:33:50;3.45;;;1.13;;
23720;SDS011;42950;52.134;5.578;2022-07-10T11:38:46;3.45;;;1.02;;
23720;SDS011;42950;52.134;5.578;2022-07-10T11:41:16;4.32;;;1.30;;
23720;SDS011;42950;52.134;5.578;2022-07-10T11:46:19;3.78;;;0.93;;
23720;SDS011;42950;52.134;5.578;2022-07-10T11:48:46;4.20;;;1.20;;
23720;SDS011;42950;52.134;5.578;2022-07-10T11:51:25;3.47;;;1.08;;
23720;SDS011;42950;52.134;5.578;2022-07-10T11:56:29;2.90;;;1.00;;
23720;SDS011;42950;52.134;5.578;2022-07-10T11:59:07;5.20;;;1.00;;
23720;SDS011;42950;52.134;5.578;2022-07-10T12:01:43;3.20;;;1.10;;
23720;SDS011;42950;52.134;5.578;2022-07-10T12:04:10;2.15;;;0.88;;
23720;SDS011;42950;52.134;5.578;2022-07-10T12:06:38;2.63;;;1.17;;
23720;SDS011;42950;52.134;5.578;2022-07-10T12:09:09;5.40;;;1.10;;
23720;SDS011;42950;52.134;5.578;2022-07-10T12:11:43;3.05;;;1.05;;
23720;SDS011;42950;52.134;5.578;2022-07-10T12:14:22;3.22;;;1.10;;
23720;SDS011;42950;52.134;5.578;2022-07-10T12:16:51;2.47;;;1.20;;
23720;SDS011;42950;52.134;5.578;2022-07-10T12:19:20;4.60;;;1.20;;
23720;SDS011;42950;52.134;5.578;2022-07-10T12:21:49;3.13;;;1.00;;
23720;SDS011;42950;52.134;5.578;2022-07-10T12:24:16;3.38;;;1.10;;
23720;SDS011;42950;52.134;5.578;2022-07-10T12:26:44;2.95;;;1.13;;
23720;SDS011;42950;52.134;5.578;2022-07-10T12:29:11;3.20;;;1.10;;
23720;SDS011;42950;52.134;5.578;2022-07-10T12:31:43;2.20;;;0.98;;
23720;SDS011;42950;52.134;5.578;2022-07-10T12:34:10;3.75;;;1.48;;
23720;SDS011;42950;52.134;5.578;2022-07-10T12:39:13;4.35;;;1.58;;
23720;SDS011;42950;52.134;5.578;2022-07-10T12:47:12;1.77;;;0.90;;
23720;SDS011;42950;52.134;5.578;2022-07-10T12:52:21;4.60;;;1.08;;
23720;SDS011;42950;52.134;5.578;2022-07-10T12:54:48;2.40;;;0.93;;
23720;SDS011;42950;52.134;5.578;2022-07-10T12:57:13;2.30;;;0.80;;
23720;SDS011;42950;52.134;5.578;2022-07-10T12:59:39;3.55;;;1.00;;
23720;SDS011;42950;52.134;5.578;2022-07-10T13:02:13;2.05;;;1.20;;
23720;SDS011;42950;52.134;5.578;2022-07-10T13:04:50;8.00;;;1.20;;
23720;SDS011;42950;52.134;5.578;2022-07-10T13:07:32;2.88;;;1.00;;
23720;SDS011;42950;52.134;5.578;2022-07-10T13:10:02;2.65;;;1.15;;
23720;SDS011;42950;52.134;5.578;2022-07-10T13:12:32;5.15;;;1.20;;
23720;SDS011;42950;52.134;5.578;2022-07-10T13:14:59;2.80;;;0.90;;
23720;SDS011;42950;52.134;5.578;2022-07-10T13:17:25;4.15;;;1.23;;
23720;SDS011;42950;52.134;5.578;2022-07-10T13:19:51;1.95;;;0.80;;
23720;SDS011;42950;52.134;5.578;2022-07-10T13:22:17;5.35;;;0.98;;
23720;SDS011;42950;52.134;5.578;2022-07-10T13:24:43;1.58;;;0.75;;
23720;SDS011;42950;52.134;5.578;2022-07-10T13:27:08;2.58;;;0.90;;
23720;SDS011;42950;52.134;5.578;2022-07-10T13:29:34;2.65;;;1.00;;
23720;SDS011;42950;52.134;5.578;2022-07-10T13:32:00;2.00;;;0.80;;
23720;SDS011;42950;52.134;5.578;2022-07-10T13:34:25;2.90;;;0.95;;
23720;SDS011;42950;52.134;5.578;2022-07-10T13:36:51;3.95;;;1.05;;
23720;SDS011;42950;52.134;5.578;2022-07-10T13:39:19;2.20;;;0.98;;
23720;SDS011;42950;52.134;5.578;2022-07-10T13:41:44;2.58;;;0.90;;
23720;SDS011;42950;52.134;5.578;2022-07-10T13:44:10;2.33;;;0.98;;
23720;SDS011;42950;52.134;5.578;2022-07-10T13:46:36;2.38;;;1.05;;
23720;SDS011;42950;52.134;5.578;2022-07-10T13:49:02;3.20;;;1.08;;
23720;SDS011;42950;52.134;5.578;2022-07-10T13:51:28;2.38;;;0.90;;
23720;SDS011;42950;52.134;5.578;2022-07-10T13:53:54;2.40;;;0.95;;
23720;SDS011;42950;52.134;5.578;2022-07-10T13:56:20;3.40;;;1.35;;
23720;SDS011;42950;52.134;5.578;2022-07-10T13:58:46;3.88;;;1.40;;
23720;SDS011;42950;52.134;5.578;2022-07-10T14:01:12;3.83;;;1.00;;
23720;SDS011;42950;52.134;5.578;2022-07-10T14:03:37;3.30;;;0.95;;
23720;SDS011;42950;52.134;5.578;2022-07-10T14:06:03;2.63;;;0.90;;
23720;SDS011;42950;52.134;5.578;2022-07-10T14:08:28;2.35;;;1.10;;
23720;SDS011;42950;52.134;5.578;2022-07-10T14:10:54;3.05;;;1.30;;
23720;SDS011;42950;52.134;5.578;2022-07-10T14:13:20;4.88;;;1.20;;
23720;SDS011;42950;52.134;5.578;2022-07-10T14:15:45;3.70;;;1.20;;
23720;SDS011;42950;52.134;5.578;2022-07-10T14:18:11;2.88;;;1.40;;
23720;SDS011;42950;52.134;5.578;2022-07-10T14:20:37;4.40;;;1.92;;
23720;SDS011;42950;52.134;5.578;2022-07-10T14:23:21;3.33;;;1.20;;
23720;SDS011;42950;52.134;5.578;2022-07-10T14:25:47;3.67;;;0.90;;
23720;SDS011;42950;52.134;5.578;2022-07-10T14:28:13;2.75;;;1.05;;
23720;SDS011;42950;52.134;5.578;2022-07-10T14:30:42;5.13;;;1.80;;
23720;SDS011;42950;52.134;5.578;2022-07-10T14:33:08;6.40;;;1.65;;
23720;SDS011;42950;52.134;5.578;2022-07-10T14:35:34;2.95;;;1.25;;
23720;SDS011;42950;52.134;5.578;2022-07-10T14:37:59;2.35;;;1.05;;
23720;SDS011;42950;52.134;5.578;2022-07-10T14:40:25;2.58;;;1.10;;
23720;SDS011;42950;52.134;5.578;2022-07-10T14:42:51;4.80;;;1.25;;
23720;SDS011;42950;52.134;5.578;2022-07-10T14:45:17;2.58;;;1.10;;
23720;SDS011;42950;52.134;5.578;2022-07-10T14:47:43;6.22;;;1.48;;
23720;SDS011;42950;52.134;5.578;2022-07-10T14:50:09;2.92;;;1.30;;
23720;SDS011;42950;52.134;5.578;2022-07-10T14:52:34;1.75;;;1.00;;
23720;SDS011;42950;52.134;5.578;2022-07-10T14:55:01;4.57;;;1.23;;
23720;SDS011;42950;52.134;5.578;2022-07-10T14:57:28;4.65;;;1.55;;
23720;SDS011;42950;52.134;5.578;2022-07-10T14:59:53;6.15;;;1.58;;
23720;SDS011;42950;52.134;5.578;2022-07-10T15:02:19;3.35;;;1.20;;
23720;SDS011;42950;52.134;5.578;2022-07-10T15:04:44;4.32;;;1.30;;
23720;SDS011;42950;52.134;5.578;2022-07-10T15:07:10;3.63;;;1.35;;
23720;SDS011;42950;52.134;5.578;2022-07-10T15:09:35;3.60;;;1.45;;
23720;SDS011;42950;52.134;5.578;2022-07-10T15:12:01;2.78;;;1.20;;
23720;SDS011;42950;52.134;5.578;2022-07-10T15:14:27;5.13;;;1.20;;
23720;SDS011;42950;52.134;5.578;2022-07-10T15:16:54;2.97;;;1.25;;
23720;SDS011;42950;52.134;5.578;2022-07-10T15:19:19;3.58;;;1.13;;
23720;SDS011;42950;52.134;5.578;2022-07-10T15:21:45;3.92;;;1.25;;
23720;SDS011;42950;52.134;5.578;2022-07-10T15:24:10;3.38;;;1.20;;
23720;SDS011;42950;52.134;5.578;2022-07-10T15:26:36;6.13;;;1.17;;
23720;SDS011;42950;52.134;5.578;2022-07-10T15:29:02;5.32;;;1.30;;
23720;SDS011;42950;52.134;5.578;2022-07-10T15:31:28;2.78;;;1.08;;